Terminal Aerodrome Forecast
Issued by NWS

Home | Current Version | Previous Version | Text Only | Print | Product List | Glossary On
Versions: 1 2 3 4 5 6 7 8 9 10 11 12 13 14 15 16 17 18 19 20 21 22 23 24 25 26
168
FTUS46 KSEW 110243 AAA
TAFHQM
TAF AMD
KHQM 110243Z 1103/1124 23012KT P6SM VCSH BKN035 OVC050
      TEMPO 1103/1107 -SHRA BKN028 OVC040
     FM110800 24012KT P6SM -SHRA BKN025 OVC040
     FM111300 19010KT 5SM BR OVC022
     FM111900 20010KT P6SM VCSH BKN030 OVC040=

USA.gov is the U.S. government's official web portal to all federal, state and local government web resources and services.